createdAt,value
2019-05-02T00:01:02.950Z,10.23
2019-05-02T00:03:36.078Z,11.10
2019-05-02T00:06:07.412Z,11.33
2019-05-02T00:08:35.088Z,13.83
2019-05-02T00:11:05.992Z,10.43
2019-05-02T00:13:35.066Z,13.00
2019-05-02T00:16:04.140Z,11.87
2019-05-02T00:18:37.337Z,12.03
2019-05-02T00:21:04.562Z,12.97
2019-05-02T00:23:33.628Z,11.40
2019-05-02T00:26:02.721Z,14.57
2019-05-02T00:28:31.864Z,13.60
2019-05-02T00:31:00.925Z,15.43
2019-05-02T00:33:34.511Z,13.87
2019-05-02T00:36:00.824Z,15.50
2019-05-02T00:38:33.261Z,11.37
2019-05-02T00:41:02.215Z,10.37
2019-05-02T00:43:34.629Z,11.63
2019-05-02T00:46:03.636Z,9.80
2019-05-02T00:48:37.716Z,11.13
2019-05-02T00:51:06.778Z,11.43
2019-05-02T00:53:35.924Z,11.37
2019-05-02T00:56:09.050Z,10.57
2019-05-02T00:58:36.985Z,12.60
2019-05-02T01:01:24.305Z,13.27
2019-05-02T01:03:56.845Z,14.83
2019-05-02T01:06:27.056Z,11.47
2019-05-02T01:08:56.094Z,12.93
2019-05-02T01:11:28.364Z,12.83
2019-05-02T01:13:57.747Z,12.80
2019-05-02T01:16:26.941Z,12.97
2019-05-02T01:18:56.019Z,12.70
2019-05-02T01:21:24.999Z,10.90
2019-05-02T01:23:54.162Z,12.30
2019-05-02T01:26:29.309Z,10.80
2019-05-02T01:29:17.831Z,11.63
2019-05-02T01:31:59.768Z,14.37
2019-05-02T01:34:43.871Z,11.60
2019-05-02T01:37:26.546Z,11.77
2019-05-02T01:39:55.662Z,11.07
2019-05-02T01:42:24.732Z,11.73
2019-05-02T01:44:53.928Z,11.07
2019-05-02T01:47:22.966Z,11.37
2019-05-02T01:49:57.069Z,11.63
2019-05-02T01:52:23.717Z,12.50
2019-05-02T01:54:53.661Z,11.80
2019-05-02T01:57:22.720Z,11.10
2019-05-02T01:59:51.743Z,11.17
2019-05-02T02:02:20.811Z,12.40
2019-05-02T02:04:52.206Z,17.03
2019-05-02T02:07:21.250Z,12.80
2019-05-02T02:09:50.404Z,12.93
2019-05-02T02:12:19.439Z,12.80
2019-05-02T02:14:53.429Z,20.97
2019-05-02T02:17:19.357Z,11.57
2019-05-02T02:19:54.377Z,11.50
2019-05-02T02:22:39.073Z,10.90
2019-05-02T02:25:24.891Z,12.60
2019-05-02T02:27:54.980Z,11.33
2019-05-02T02:30:26.704Z,12.03
2019-05-02T02:33:00.363Z,14.47
2019-05-02T02:35:26.633Z,13.80
2019-05-02T02:37:57.083Z,14.67
2019-05-02T02:40:32.840Z,12.47
2019-05-02T02:42:57.071Z,12.03
2019-05-02T02:45:31.686Z,12.00
2019-05-02T02:48:02.646Z,14.43
2019-05-02T02:50:36.720Z,12.83
2019-05-02T02:53:02.687Z,11.73
2019-05-02T02:55:31.813Z,11.73
2019-05-02T02:58:04.752Z,11.13
2019-05-02T03:00:31.684Z,11.67
2019-05-02T03:03:00.785Z,13.23
2019-05-02T03:05:29.864Z,10.87
2019-05-02T03:07:59.417Z,11.73
2019-05-02T03:10:29.723Z,13.90
2019-05-02T03:13:21.943Z,10.97
2019-05-02T03:15:51.310Z,13.03
2019-05-02T03:18:20.329Z,9.43
2019-05-02T03:20:49.453Z,9.90
2019-05-02T03:23:23.991Z,13.23
2019-05-02T03:25:51.355Z,14.90
2019-05-02T03:28:21.081Z,12.40
2019-05-02T03:30:50.234Z,14.43
2019-05-02T03:33:20.494Z,14.37
2019-05-02T03:35:49.685Z,11.87
2019-05-02T03:38:31.081Z,12.13
2019-05-02T03:40:49.645Z,13.50
2019-05-02T03:43:25.529Z,10.93
2019-05-02T03:45:49.715Z,12.63
2019-05-02T03:48:25.577Z,13.03
2019-05-02T03:50:49.807Z,13.30
2019-05-02T03:53:24.874Z,13.57
2019-05-02T03:55:50.887Z,14.07
2019-05-02T03:58:19.961Z,12.80
2019-05-02T04:01:00.359Z,11.77
2019-05-02T04:03:20.382Z,11.87
2019-05-02T04:05:49.479Z,15.03
2019-05-02T04:08:20.765Z,12.37
2019-05-02T04:11:23.458Z,13.10
2019-05-02T04:13:53.387Z,13.63
2019-05-02T04:16:26.101Z,12.87
2019-05-02T04:18:58.247Z,13.53
2019-05-02T04:21:28.682Z,16.93
2019-05-02T04:24:07.220Z,13.17
2019-05-02T04:26:28.954Z,15.80
2019-05-02T04:28:58.286Z,17.73
2019-05-02T04:31:31.785Z,15.77
2019-05-02T04:33:58.161Z,14.97
2019-05-02T04:36:27.270Z,15.60
2019-05-02T04:38:59.318Z,15.60
2019-05-02T04:41:30.338Z,16.50
2019-05-02T04:44:01.394Z,14.47
2019-05-02T04:46:31.250Z,13.20
2019-05-02T04:48:59.752Z,13.87
2019-05-02T04:51:31.950Z,13.80
2019-05-02T04:54:00.791Z,17.53
2019-05-02T04:56:29.831Z,18.60
2019-05-02T04:59:01.792Z,14.63
2019-05-02T05:01:41.962Z,16.73
2019-05-02T05:04:03.006Z,15.53
2019-05-02T05:06:32.383Z,20.07
2019-05-02T05:09:04.043Z,14.47
2019-05-02T05:11:32.284Z,17.53
2019-05-02T05:14:01.417Z,17.10
2019-05-02T05:16:30.507Z,19.97
2019-05-02T05:19:00.113Z,18.37
2019-05-02T05:21:29.277Z,16.03
2019-05-02T05:24:18.171Z,18.00
2019-05-02T05:26:51.882Z,20.27
2019-05-02T05:29:23.250Z,16.57
2019-05-02T05:31:55.040Z,17.30
2019-05-02T05:34:27.453Z,18.00
2019-05-02T05:36:54.575Z,17.80
2019-05-02T05:39:23.650Z,19.97
2019-05-02T05:41:52.692Z,19.67
2019-05-02T05:44:23.416Z,22.47
2019-05-02T05:46:52.652Z,23.23
2019-05-02T05:49:21.976Z,21.50
2019-05-02T05:51:54.454Z,28.23
2019-05-02T05:54:22.218Z,29.67
2019-05-02T05:56:51.694Z,27.30
2019-05-02T05:59:22.209Z,27.70
2019-05-02T06:01:51.898Z,26.33
2019-05-02T06:04:23.650Z,26.97
2019-05-02T06:06:53.949Z,32.67
2019-05-02T06:09:26.287Z,30.50
2019-05-02T06:11:55.368Z,34.67
2019-05-02T06:14:26.340Z,34.17
2019-05-02T06:16:55.629Z,34.70
2019-05-02T06:19:24.752Z,35.63
2019-05-02T06:21:53.915Z,37.53
2019-05-02T06:24:23.090Z,38.10
2019-05-02T06:26:52.163Z,40.23
2019-05-02T06:29:21.239Z,39.03
2019-05-02T06:31:50.403Z,36.23
2019-05-02T06:34:19.413Z,32.17
2019-05-02T06:36:48.565Z,34.97
2019-05-02T06:39:17.588Z,36.47
2019-05-02T06:41:46.720Z,41.40
2019-05-02T06:44:18.560Z,38.53
2019-05-02T06:46:46.755Z,37.67
2019-05-02T06:49:15.847Z,35.50
2019-05-02T06:51:45.039Z,32.60
2019-05-02T06:54:18.065Z,33.67
2019-05-02T06:56:47.965Z,38.53
2019-05-02T06:59:18.399Z,35.07
2019-05-02T07:01:46.655Z,39.53
2019-05-02T07:04:17.397Z,40.17
2019-05-02T07:06:58.255Z,33.27
2019-05-02T07:09:18.343Z,38.63
2019-05-02T07:11:56.969Z,41.37
2019-05-02T07:14:18.577Z,38.10
2019-05-02T07:17:08.047Z,43.63
2019-05-02T07:19:40.380Z,44.17
2019-05-02T07:22:09.536Z,44.70
2019-05-02T07:24:38.596Z,48.63
2019-05-02T07:27:07.678Z,47.70
2019-05-02T07:29:36.979Z,47.57
2019-05-02T07:32:06.322Z,48.40
2019-05-02T07:34:35.354Z,44.87
2019-05-02T07:37:08.535Z,45.37
2019-05-02T07:39:36.101Z,45.33
2019-05-02T07:42:07.935Z,42.57
2019-05-02T07:44:37.110Z,41.03
2019-05-02T07:47:06.223Z,43.57
2019-05-02T07:49:35.294Z,42.53
2019-05-02T07:52:04.414Z,42.10
2019-05-02T07:54:33.502Z,41.90
2019-05-02T07:57:02.650Z,55.60
2019-05-02T07:59:31.888Z,46.70
2019-05-02T08:02:01.001Z,44.30
2019-05-02T08:04:30.129Z,42.70
2019-05-02T08:06:59.180Z,47.30
2019-05-02T08:09:28.218Z,49.00
2019-05-02T08:11:57.259Z,45.73
2019-05-02T08:14:29.317Z,48.63
2019-05-02T08:17:05.334Z,45.33
2019-05-02T08:19:27.992Z,47.53
2019-05-02T08:21:57.126Z,44.27
2019-05-02T08:24:26.191Z,45.60
2019-05-02T08:27:23.359Z,47.53
2019-05-02T08:29:53.184Z,44.87
2019-05-02T08:32:22.244Z,49.83
2019-05-02T08:34:53.417Z,43.53
2019-05-02T08:37:22.465Z,44.60
2019-05-02T08:39:51.586Z,46.43
2019-05-02T08:42:20.735Z,41.67
2019-05-02T08:44:51.525Z,44.00
2019-05-02T08:47:23.845Z,39.13
2019-05-02T08:49:54.651Z,41.67
2019-05-02T08:52:22.538Z,41.27
2019-05-02T08:54:53.163Z,44.13
2019-05-02T08:57:23.709Z,37.63
2019-05-02T08:59:55.463Z,39.73
2019-05-02T09:02:25.909Z,42.57
2019-05-02T09:04:58.798Z,39.07
2019-05-02T09:07:25.874Z,36.87
2019-05-02T09:09:55.553Z,36.47
2019-05-02T09:12:24.866Z,36.63
2019-05-02T09:14:54.296Z,34.50
2019-05-02T09:17:35.494Z,39.63
2019-05-02T09:20:02.278Z,38.83
2019-05-02T09:22:25.423Z,37.90
2019-05-02T09:24:54.547Z,34.17
2019-05-02T09:27:23.634Z,39.53
2019-05-02T09:29:52.956Z,41.17
2019-05-02T09:32:26.282Z,38.33
2019-05-02T09:34:56.627Z,39.37
2019-05-02T09:37:23.944Z,38.87
2019-05-02T09:39:53.009Z,36.67
2019-05-02T09:42:22.196Z,37.90
2019-05-02T09:44:53.343Z,33.90
2019-05-02T09:47:27.222Z,37.13
2019-05-02T09:50:12.865Z,36.13
2019-05-02T09:52:44.094Z,37.03
2019-05-02T09:55:13.466Z,35.80
2019-05-02T09:57:42.873Z,36.50
2019-05-02T10:00:14.174Z,39.17
2019-05-02T10:02:43.769Z,36.77
2019-05-02T10:05:12.897Z,35.97
2019-05-02T10:07:42.046Z,38.53
2019-05-02T10:10:12.604Z,34.87
2019-05-02T10:12:42.735Z,34.23
2019-05-02T10:15:12.911Z,30.83
2019-05-02T10:17:46.453Z,35.17
2019-05-02T10:20:12.933Z,35.63
2019-05-02T10:22:43.825Z,34.20
2019-05-02T10:25:13.132Z,33.67
2019-05-02T10:27:43.855Z,37.53
2019-05-02T10:30:15.584Z,33.67
2019-05-02T10:32:47.171Z,33.23
2019-05-02T10:35:19.323Z,33.33
2019-05-02T10:37:48.433Z,32.90
2019-05-02T10:40:17.655Z,33.80
2019-05-02T10:42:47.998Z,32.03
2019-05-02T10:45:17.185Z,35.20
2019-05-02T10:47:46.328Z,37.60
2019-05-02T10:50:26.098Z,29.27
2019-05-02T10:52:56.233Z,33.53
2019-05-02T10:55:25.314Z,31.90
2019-05-02T10:57:54.392Z,31.53
2019-05-02T11:00:26.409Z,33.03
2019-05-02T11:03:12.050Z,36.30
2019-05-02T11:05:42.095Z,34.87
2019-05-02T11:08:12.010Z,33.43
2019-05-02T11:10:42.276Z,32.43
2019-05-02T11:13:22.185Z,33.43
2019-05-02T11:16:12.233Z,34.73
2019-05-02T11:19:09.259Z,30.20
2019-05-02T11:21:38.430Z,26.77
2019-05-02T11:24:07.525Z,30.07
2019-05-02T11:26:36.702Z,25.83
2019-05-02T11:29:06.129Z,26.77
2019-05-02T11:31:35.223Z,32.63
2019-05-02T11:34:04.279Z,30.77
2019-05-02T11:36:33.407Z,30.57
2019-05-02T11:39:14.333Z,33.63
2019-05-02T11:41:33.326Z,32.07
2019-05-02T11:44:03.007Z,31.40
2019-05-02T11:46:33.009Z,34.00
2019-05-02T11:49:02.538Z,31.00
2019-05-02T11:51:32.747Z,33.43
2019-05-02T11:54:05.057Z,33.23
2019-05-02T11:56:33.110Z,30.73
2019-05-02T11:59:02.781Z,33.67
2019-05-02T12:01:37.147Z,31.97
2019-05-02T12:04:07.605Z,32.30
2019-05-02T12:06:35.248Z,31.47
2019-05-02T12:09:06.169Z,28.93
2019-05-02T12:11:36.680Z,29.30
2019-05-02T12:14:05.815Z,25.87
2019-05-02T12:16:34.941Z,26.70
2019-05-02T12:19:11.376Z,26.40
2019-05-02T12:21:35.048Z,28.97
2019-05-02T12:24:04.307Z,27.00
2019-05-02T12:26:33.491Z,31.53
2019-05-02T12:29:02.800Z,27.17
2019-05-02T12:31:32.959Z,27.27
2019-05-02T12:34:04.375Z,27.07
2019-05-02T12:36:33.707Z,28.37
2019-05-02T12:39:03.078Z,26.73
2019-05-02T12:41:33.194Z,22.63
2019-05-02T12:44:03.427Z,26.13
2019-05-02T12:46:32.713Z,21.77
2019-05-02T12:49:03.044Z,26.17
2019-05-02T12:51:32.315Z,25.20
2019-05-02T12:54:02.458Z,24.13
2019-05-02T12:56:32.372Z,23.43
2019-05-02T12:59:02.357Z,22.47
2019-05-02T13:01:32.946Z,21.77
2019-05-02T13:04:05.742Z,23.87
2019-05-02T13:06:37.086Z,25.83
2019-05-02T13:09:09.265Z,23.80
2019-05-02T13:12:02.814Z,20.03
2019-05-02T13:14:32.604Z,22.87
2019-05-02T13:17:05.572Z,21.87
2019-05-02T13:19:39.956Z,24.20
2019-05-02T13:22:21.769Z,24.50
2019-05-02T13:25:02.843Z,25.20
2019-05-02T13:27:43.311Z,23.07
2019-05-02T13:30:04.285Z,23.63
2019-05-02T13:32:38.925Z,25.50
2019-05-02T13:35:22.448Z,27.03
2019-05-02T13:37:54.413Z,25.40
2019-05-02T13:40:28.331Z,23.43
2019-05-02T13:42:57.511Z,24.97
2019-05-02T13:45:41.991Z,23.67
2019-05-02T13:48:12.298Z,26.07
2019-05-02T13:50:42.384Z,20.97
2019-05-02T13:53:12.157Z,23.97
2019-05-02T13:55:46.372Z,24.00
2019-05-02T13:58:21.623Z,25.00
2019-05-02T14:00:49.018Z,23.03
2019-05-02T14:03:18.224Z,23.60
2019-05-02T14:05:51.786Z,22.10
2019-05-02T14:08:37.254Z,22.67
2019-05-02T14:11:24.110Z,23.53
2019-05-02T14:13:53.198Z,20.53
2019-05-02T14:16:24.831Z,23.77
2019-05-02T14:18:53.893Z,21.90
2019-05-02T14:21:23.058Z,24.10
2019-05-02T14:23:52.415Z,21.93
2019-05-02T14:26:30.353Z,24.70
2019-05-02T14:28:53.243Z,30.47
2019-05-02T14:31:22.433Z,24.60
2019-05-02T14:34:09.161Z,27.37
2019-05-02T14:36:39.888Z,33.93
2019-05-02T14:39:09.473Z,29.47
2019-05-02T14:41:42.149Z,30.80
2019-05-02T14:44:09.312Z,31.17
2019-05-02T14:46:39.601Z,31.90
2019-05-02T14:49:11.933Z,35.73
2019-05-02T14:51:41.749Z,36.90
2019-05-02T14:54:12.064Z,39.33
2019-05-02T14:57:06.032Z,30.87
2019-05-02T14:59:35.080Z,34.60
2019-05-02T15:02:07.779Z,34.33
2019-05-02T15:04:38.166Z,38.83
2019-05-02T15:07:08.784Z,31.23
2019-05-02T15:09:37.859Z,36.47
2019-05-02T15:12:13.795Z,31.27
2019-05-02T15:14:38.333Z,32.57
2019-05-02T15:17:07.740Z,35.90
2019-05-02T15:20:02.813Z,31.43
2019-05-02T15:22:35.772Z,33.97
2019-05-02T15:25:02.850Z,32.63
2019-05-02T15:27:40.180Z,34.00
2019-05-02T15:30:06.845Z,31.83
2019-05-02T15:32:52.092Z,34.90
2019-05-02T15:35:46.259Z,35.00
2019-05-02T15:38:24.437Z,37.80
2019-05-02T15:40:50.478Z,34.77
2019-05-02T15:43:16.974Z,37.30
2019-05-02T15:45:46.140Z,43.23
2019-05-02T15:48:22.560Z,40.40
2019-05-02T15:50:52.199Z,36.93
2019-05-02T15:53:23.469Z,36.40
2019-05-02T15:55:52.763Z,35.27
2019-05-02T15:58:27.659Z,38.40
2019-05-02T16:01:24.928Z,33.23
2019-05-02T16:03:55.253Z,37.83
2019-05-02T16:06:30.905Z,30.90
2019-05-02T16:08:56.439Z,31.13
2019-05-02T16:11:25.675Z,36.87
2019-05-02T16:13:56.006Z,36.27
2019-05-02T16:16:26.408Z,36.60
2019-05-02T16:18:55.804Z,39.13
2019-05-02T16:21:51.913Z,32.00
2019-05-02T16:24:22.934Z,35.40
2019-05-02T16:26:53.146Z,36.13
2019-05-02T16:29:28.175Z,36.47
2019-05-02T16:32:03.614Z,35.43
2019-05-02T16:34:35.510Z,33.57
2019-05-02T16:37:13.591Z,33.80
2019-05-02T16:39:49.223Z,33.60
2019-05-02T16:42:13.281Z,27.03
2019-05-02T16:44:42.913Z,27.77
2019-05-02T16:47:13.897Z,27.47
2019-05-02T16:49:43.519Z,27.87
2019-05-02T16:52:13.732Z,28.73
2019-05-02T16:54:47.877Z,27.73
2019-05-02T16:57:22.179Z,27.53
2019-05-02T16:59:55.863Z,28.10
2019-05-02T17:02:21.845Z,30.07
2019-05-02T17:04:54.366Z,28.77
2019-05-02T17:07:29.800Z,29.23
2019-05-02T17:10:25.120Z,32.23
2019-05-02T17:12:57.678Z,34.20
2019-05-02T17:15:35.313Z,29.83
2019-05-02T17:18:12.435Z,27.43
2019-05-02T17:20:35.648Z,29.97
2019-05-02T17:23:07.579Z,27.57
2019-05-02T17:25:35.784Z,32.60
2019-05-02T17:28:12.731Z,30.53
2019-05-02T17:30:42.538Z,29.60
2019-05-02T17:33:14.314Z,29.33
2019-05-02T17:35:49.483Z,31.03
2019-05-02T17:38:14.302Z,27.13
2019-05-02T17:40:43.423Z,30.77
2019-05-02T17:43:12.636Z,27.07
2019-05-02T17:45:42.242Z,28.83
2019-05-02T17:48:16.209Z,25.30
2019-05-02T17:50:59.502Z,26.70
2019-05-02T17:53:33.619Z,32.97
2019-05-02T17:56:01.730Z,25.73
2019-05-02T17:58:31.986Z,30.70
2019-05-02T18:01:02.790Z,28.43
2019-05-02T18:03:35.106Z,29.83
2019-05-02T18:06:07.568Z,31.23
2019-05-02T18:08:35.049Z,27.47
2019-05-02T18:11:04.171Z,26.20
2019-05-02T18:13:34.229Z,27.53
2019-05-02T18:16:07.812Z,26.40
2019-05-02T18:18:37.422Z,31.17
2019-05-02T18:21:06.964Z,26.03
2019-05-02T18:23:36.156Z,27.93
2019-05-02T18:26:06.442Z,31.77
2019-05-02T18:28:46.970Z,32.50
2019-05-02T18:31:07.749Z,30.50
2019-05-02T18:33:41.174Z,39.10
2019-05-02T18:36:07.824Z,35.90
2019-05-02T18:38:36.893Z,38.13
2019-05-02T18:41:07.776Z,34.73
2019-05-02T18:43:43.467Z,35.13
2019-05-02T18:46:07.913Z,32.10
2019-05-02T18:48:44.227Z,30.47
2019-05-02T18:51:07.704Z,29.87
2019-05-02T18:53:36.817Z,31.17
2019-05-02T18:56:05.921Z,32.90
2019-05-02T18:58:36.355Z,32.33
2019-05-02T19:01:08.370Z,33.60
2019-05-02T19:03:36.762Z,29.10
2019-05-02T19:06:05.918Z,34.23
2019-05-02T19:08:45.257Z,31.13
2019-05-02T19:11:12.020Z,35.03
2019-05-02T19:13:42.606Z,33.37
2019-05-02T19:16:08.337Z,29.87
2019-05-02T19:18:37.414Z,31.50
2019-05-02T19:21:06.476Z,36.33
2019-05-02T19:23:36.230Z,30.93
2019-05-02T19:26:09.839Z,30.53
2019-05-02T19:28:54.386Z,32.47
2019-05-02T19:31:25.397Z,35.47
2019-05-02T19:33:54.486Z,36.70
2019-05-02T19:36:27.438Z,35.03
2019-05-02T19:38:56.918Z,35.03
2019-05-02T19:41:25.069Z,31.67
2019-05-02T19:43:56.032Z,32.00
2019-05-02T19:46:38.876Z,34.17
2019-05-02T19:49:06.958Z,35.03
2019-05-02T19:51:37.343Z,36.20
2019-05-02T19:54:07.130Z,31.50
2019-05-02T19:56:43.990Z,31.70
2019-05-02T19:59:07.087Z,31.60
2019-05-02T20:01:36.155Z,30.23
2019-05-02T20:04:06.394Z,27.73
2019-05-02T20:06:36.795Z,28.10
2019-05-02T20:09:08.456Z,25.90
2019-05-02T20:11:37.830Z,26.80
2019-05-02T20:14:09.694Z,24.00
2019-05-02T20:16:47.177Z,25.83
2019-05-02T20:19:17.398Z,25.37
2019-05-02T20:22:18.594Z,22.07
2019-05-02T20:24:59.912Z,22.70
2019-05-02T20:27:28.259Z,22.83
2019-05-02T20:29:56.894Z,19.40
2019-05-02T20:32:26.033Z,20.43
2019-05-02T20:34:55.530Z,21.13
2019-05-02T20:37:24.877Z,20.27
2019-05-02T20:39:54.044Z,19.87
2019-05-02T20:42:23.159Z,20.60
2019-05-02T20:44:52.758Z,18.13
2019-05-02T20:47:23.517Z,17.40
2019-05-02T20:49:52.731Z,17.03
2019-05-02T20:52:22.148Z,18.97
2019-05-02T20:54:52.355Z,18.73
2019-05-02T20:57:21.663Z,16.87
2019-05-02T20:59:52.562Z,16.13
2019-05-02T21:02:21.852Z,18.53
2019-05-02T21:04:52.396Z,18.40
2019-05-02T21:07:42.421Z,13.33
2019-05-02T21:10:18.203Z,17.87
2019-05-02T21:12:47.350Z,19.00
2019-05-02T21:15:18.238Z,20.10
2019-05-02T21:17:48.245Z,19.03
2019-05-02T21:20:17.888Z,18.40
2019-05-02T21:22:46.995Z,17.20
2019-05-02T21:25:16.244Z,15.17
2019-05-02T21:27:45.426Z,16.70
2019-05-02T21:30:15.439Z,14.40
2019-05-02T21:32:44.517Z,15.47
2019-05-02T21:35:13.760Z,17.03
2019-05-02T21:37:43.470Z,18.40
2019-05-02T21:40:12.697Z,19.83
2019-05-02T21:42:42.515Z,17.40
2019-05-02T21:45:13.172Z,19.30
2019-05-02T21:47:43.925Z,17.80
2019-05-02T21:50:34.845Z,18.97
2019-05-02T21:53:13.554Z,16.90
2019-05-02T21:55:52.044Z,16.30
2019-05-02T21:58:21.950Z,16.33
2019-05-02T22:00:57.390Z,18.37
2019-05-02T22:03:26.538Z,14.43
2019-05-02T22:05:55.716Z,14.67
2019-05-02T22:08:26.340Z,13.70
2019-05-02T22:10:55.462Z,14.67
2019-05-02T22:13:24.676Z,14.40
2019-05-02T22:15:53.820Z,13.33
2019-05-02T22:18:23.045Z,13.50
2019-05-02T22:20:52.416Z,13.40
2019-05-02T22:23:21.617Z,15.63
2019-05-02T22:25:52.522Z,12.13
2019-05-02T22:28:22.109Z,13.83
2019-05-02T22:30:54.373Z,12.00
2019-05-02T22:33:22.321Z,11.33
2019-05-02T22:35:52.380Z,12.30
2019-05-02T22:38:35.086Z,8.80
2019-05-02T22:41:04.371Z,13.30
2019-05-02T22:43:35.170Z,13.47
2019-05-02T22:46:06.814Z,11.03
2019-05-02T22:48:38.330Z,11.07
2019-05-02T22:51:07.420Z,12.70
2019-05-02T22:53:36.603Z,13.87
2019-05-02T22:56:05.743Z,14.33
2019-05-02T22:58:34.943Z,14.00
2019-05-02T23:01:04.982Z,16.00
2019-05-02T23:03:34.106Z,15.53
2019-05-02T23:06:03.224Z,13.67
2019-05-02T23:08:32.394Z,11.77
2019-05-02T23:11:03.402Z,12.03
2019-05-02T23:13:32.794Z,11.33
2019-05-02T23:16:02.865Z,14.77
2019-05-02T23:18:32.086Z,13.43
2019-05-02T23:21:02.112Z,9.87
2019-05-02T23:23:32.718Z,12.80
2019-05-02T23:26:22.428Z,13.77
2019-05-02T23:28:52.422Z,12.43
2019-05-02T23:31:22.560Z,14.07
2019-05-02T23:34:02.306Z,15.23
2019-05-02T23:36:32.494Z,15.47
2019-05-02T23:39:02.018Z,16.17
2019-05-02T23:41:32.912Z,17.77
2019-05-02T23:44:03.017Z,16.60
2019-05-02T23:46:32.298Z,15.80
2019-05-02T23:49:02.131Z,14.20
2019-05-02T23:51:32.103Z,14.50
2019-05-02T23:54:02.238Z,12.93
2019-05-02T23:56:32.482Z,11.87
2019-05-02T23:59:02.799Z,12.57
